Time;durP1;ratioP1;P1;durP2;ratioP2;P2;SDS_P1;SDS_P2;PMS_P1;PMS_P2;Temp;Humidity;BMP_temperature;BMP_pressure;BME280_temperature;BME280_humidity;BME280_pressure;Samples;Min_cycle;Max_cycle;Signal;HPM_P1;HPM_P2
2021/08/15 00:01:40;;;;;;;6.68;4.97;;;22.40;62.00;;;;;;5035586;28;20104;-60
2021/08/15 00:04:06;;;;;;;7.32;5.13;;;22.40;62.20;;;;;;5035998;28;20026;-59
2021/08/15 00:06:31;;;;;;;6.22;4.68;;;22.30;62.40;;;;;;5035994;28;20031;-59
2021/08/15 00:08:57;;;;;;;7.32;4.40;;;22.30;62.50;;;;;;5035473;28;20147;-59
2021/08/15 00:11:23;;;;;;;6.88;4.88;;;22.30;62.70;;;;;;5035845;28;20040;-60
2021/08/15 00:13:48;;;;;;;6.45;4.90;;;22.20;62.80;;;;;;5035993;28;20469;-58
2021/08/15 00:16:14;;;;;;;7.50;5.65;;;22.20;62.90;;;;;;5035733;28;20079;-59
2021/08/15 00:18:40;;;;;;;6.25;4.60;;;22.20;63.20;;;;;;5046746;28;20461;-59
2021/08/15 00:21:06;;;;;;;8.07;5.18;;;22.10;63.20;;;;;;5047802;28;20472;-59
2021/08/15 00:23:32;;;;;;;7.55;4.95;;;22.10;63.40;;;;;;5035386;28;20108;-60
2021/08/15 00:25:58;;;;;;;6.85;5.05;;;22.10;64.20;;;;;;5035609;28;20068;-60
2021/08/15 00:28:23;;;;;;;7.10;4.68;;;22.00;63.40;;;;;;5035538;28;20029;-60
2021/08/15 00:30:49;;;;;;;7.82;4.80;;;22.00;63.80;;;;;;5035354;28;20041;-59
2021/08/15 00:33:15;;;;;;;6.65;4.72;;;22.00;63.70;;;;;;5035494;28;20036;-60
2021/08/15 00:35:40;;;;;;;7.70;5.03;;;21.90;64.00;;;;;;5035364;28;20021;-60
2021/08/15 00:38:06;;;;;;;8.43;5.57;;;21.90;64.10;;;;;;5035433;28;20401;-59
2021/08/15 00:40:32;;;;;;;7.20;5.45;;;21.90;64.20;;;;;;5035032;28;20069;-59
2021/08/15 00:42:57;;;;;;;7.97;5.45;;;21.90;64.20;;;;;;5035333;28;20078;-60
2021/08/15 00:45:23;;;;;;;10.65;6.75;;;21.80;64.10;;;;;;5035127;28;20497;-60
2021/08/15 00:47:49;;;;;;;6.28;5.03;;;21.80;64.20;;;;;;5042585;28;20033;-59
2021/08/15 00:50:15;;;;;;;7.82;5.80;;;21.80;64.30;;;;;;5055064;28;20021;-60
2021/08/15 00:52:41;;;;;;;8.85;5.68;;;21.80;64.50;;;;;;5055136;28;20484;-60
2021/08/15 00:55:09;;;;;;;8.45;5.18;;;21.80;64.70;;;;;;5036277;28;20021;-60
2021/08/15 00:57:36;;;;;;;9.52;6.53;;;21.80;64.80;;;;;;5035340;28;20053;-60
2021/08/15 01:00:08;;;;;;;9.30;5.35;;;21.70;64.90;;;;;;5037253;28;20080;-60
2021/08/15 01:02:35;;;;;;;7.28;5.63;;;21.70;65.00;;;;;;5035033;28;20029;-60
2021/08/15 01:05:02;;;;;;;8.35;5.88;;;21.70;65.00;;;;;;5035076;28;20029;-60
2021/08/15 01:07:27;;;;;;;7.60;5.97;;;21.70;65.20;;;;;;5034678;28;20026;-60
2021/08/15 01:09:54;;;;;;;8.18;6.05;;;21.60;65.30;;;;;;5034937;28;20032;-60
2021/08/15 01:12:19;;;;;;;9.32;5.65;;;21.60;65.40;;;;;;5033668;28;20072;-60
2021/08/15 01:14:46;;;;;;;8.02;5.72;;;21.50;65.40;;;;;;5034744;28;20397;-60
2021/08/15 01:17:12;;;;;;;10.75;5.95;;;21.50;65.60;;;;;;5034651;28;20083;-60
2021/08/15 01:19:37;;;;;;;10.15;6.47;;;21.50;65.50;;;;;;5034665;28;20026;-60
2021/08/15 01:22:03;;;;;;;7.55;5.90;;;21.50;65.80;;;;;;5034528;28;20022;-60
2021/08/15 01:24:29;;;;;;;9.32;6.20;;;21.50;65.80;;;;;;5034546;28;20079;-60
2021/08/15 01:26:58;;;;;;;10.25;5.88;;;21.40;65.80;;;;;;5034603;28;20101;-60
2021/08/15 01:29:24;;;;;;;8.13;5.82;;;21.40;65.80;;;;;;5024205;28;20037;-59
2021/08/15 01:31:50;;;;;;;9.43;6.38;;;21.40;65.90;;;;;;5014469;28;20042;-60
2021/08/15 01:34:16;;;;;;;9.85;6.82;;;21.40;65.90;;;;;;5014635;28;20033;-60
2021/08/15 01:36:42;;;;;;;9.85;6.32;;;21.30;65.90;;;;;;5014554;28;20087;-60
2021/08/15 01:39:07;;;;;;;9.85;6.05;;;21.30;65.90;;;;;;5024853;28;20028;-60
2021/08/15 01:41:33;;;;;;;11.70;7.50;;;21.30;66.20;;;;;;5054210;28;20029;-60
2021/08/15 01:44:00;;;;;;;11.55;7.60;;;21.30;66.20;;;;;;5054186;28;20112;-60
2021/08/15 01:46:29;;;;;;;10.32;6.85;;;21.30;66.20;;;;;;5034775;28;20034;-60
2021/08/15 01:48:55;;;;;;;9.85;6.88;;;21.30;66.50;;;;;;5033020;28;20415;-60
2021/08/15 01:51:22;;;;;;;11.95;8.13;;;21.30;66.70;;;;;;5038168;28;20033;-60
2021/08/15 01:53:50;;;;;;;9.93;7.00;;;21.20;66.60;;;;;;5016290;28;20022;-60
2021/08/15 01:56:16;;;;;;;9.68;7.07;;;21.20;66.70;;;;;;5033989;28;20028;-60
2021/08/15 01:58:42;;;;;;;10.77;7.80;;;21.20;66.60;;;;;;5033878;28;20025;-60
2021/08/15 02:01:07;;;;;;;12.00;7.47;;;21.20;66.80;;;;;;5033643;28;20104;-60
2021/08/15 02:03:36;;;;;;;11.95;9.00;;;21.20;66.90;;;;;;5031850;28;20021;-60
2021/08/15 02:06:02;;;;;;;13.00;8.23;;;21.10;66.90;;;;;;5033754;28;20029;-60
2021/08/15 02:08:28;;;;;;;12.18;8.48;;;21.10;67.10;;;;;;5033626;28;20036;-60
2021/08/15 02:10:53;;;;;;;13.40;8.82;;;21.10;67.20;;;;;;5048322;28;20021;-60
2021/08/15 02:13:19;;;;;;;10.23;7.85;;;21.00;67.20;;;;;;5053757;28;20025;-60
2021/08/15 02:15:45;;;;;;;11.02;7.70;;;21.00;67.30;;;;;;5053963;28;20017;-60
2021/08/15 02:18:10;;;;;;;11.52;7.97;;;21.00;67.40;;;;;;5051954;28;20469;-60
2021/08/15 02:20:37;;;;;;;12.38;8.75;;;21.00;67.50;;;;;;5033013;28;20057;-60
2021/08/15 02:23:03;;;;;;;10.25;8.13;;;21.00;67.60;;;;;;5033371;28;20022;-60
2021/08/15 02:25:29;;;;;;;13.75;9.45;;;21.00;67.60;;;;;;5034146;28;20033;-60
2021/08/15 02:27:55;;;;;;;14.85;9.75;;;21.00;67.50;;;;;;5033342;28;20034;-60
2021/08/15 02:30:23;;;;;;;15.90;10.55;;;21.00;67.40;;;;;;5033287;28;20041;-60
2021/08/15 02:32:50;;;;;;;14.18;9.85;;;21.00;67.40;;;;;;5033566;28;20025;-60
2021/08/15 02:35:16;;;;;;;13.82;9.55;;;21.00;67.40;;;;;;5032731;28;20029;-60
2021/08/15 02:37:45;;;;;;;14.48;9.95;;;21.00;67.60;;;;;;5033049;28;20026;-60
2021/08/15 02:40:12;;;;;;;13.15;9.23;;;21.00;67.40;;;;;;5048641;28;20466;-60
2021/08/15 02:42:39;;;;;;;14.75;9.35;;;21.00;67.60;;;;;;5053232;28;20033;-60
2021/08/15 02:45:07;;;;;;;12.27;8.90;;;21.00;67.60;;;;;;5053561;28;20029;-59
2021/08/15 02:47:33;;;;;;;14.68;8.82;;;21.00;67.80;;;;;;5053153;28;20393;-60
2021/08/15 02:49:59;;;;;;;18.92;9.77;;;21.00;67.90;;;;;;5048155;28;20024;-60
2021/08/15 02:52:25;;;;;;;15.18;9.77;;;21.00;68.10;;;;;;5032552;28;20100;-61
2021/08/15 02:54:50;;;;;;;12.75;9.45;;;21.00;67.90;;;;;;5033362;28;20091;-60
2021/08/15 02:57:16;;;;;;;16.35;10.38;;;20.90;67.80;;;;;;5033455;28;20017;-61
2021/08/15 02:59:42;;;;;;;14.88;10.05;;;20.90;68.10;;;;;;5033402;28;20361;-61
2021/08/15 03:02:11;;;;;;;11.20;9.25;;;20.90;68.20;;;;;;5033487;28;20025;-61
2021/08/15 03:04:37;;;;;;;16.27;10.48;;;20.90;68.20;;;;;;5033307;28;20502;-61
2021/08/15 03:07:03;;;;;;;18.15;10.77;;;20.90;68.20;;;;;;5032617;28;20018;-61
2021/08/15 03:09:30;;;;;;;14.77;9.95;;;21.00;68.50;;;;;;5038533;28;20083;-61
2021/08/15 03:11:56;;;;;;;15.13;10.55;;;21.00;68.40;;;;;;5033106;28;20047;-61
2021/08/15 03:14:21;;;;;;;15.98;10.45;;;21.00;68.30;;;;;;5033079;28;20163;-61
2021/08/15 03:16:47;;;;;;;15.02;10.55;;;21.10;68.40;;;;;;5031861;28;20075;-61
2021/08/15 03:19:13;;;;;;;12.13;9.52;;;21.10;68.60;;;;;;5033140;28;20025;-61
2021/08/15 03:21:39;;;;;;;16.98;9.98;;;21.20;69.00;;;;;;5032455;28;20064;-61
2021/08/15 03:24:05;;;;;;;10.40;8.63;;;21.20;69.40;;;;;;5033058;28;20178;-61
2021/08/15 03:26:32;;;;;;;13.02;8.77;;;21.20;69.70;;;;;;5017424;28;20040;-61
2021/08/15 03:28:58;;;;;;;12.52;8.40;;;21.30;69.90;;;;;;5013380;28;20033;-61
2021/08/15 03:31:24;;;;;;;10.77;9.02;;;21.50;70.00;;;;;;5013263;28;20042;-61
2021/08/15 03:33:50;;;;;;;10.25;8.20;;;21.60;70.20;;;;;;5013365;28;20033;-61
2021/08/15 03:36:16;;;;;;;10.05;8.52;;;21.70;70.40;;;;;;5015274;28;20068;-61
2021/08/15 03:38:41;;;;;;;12.15;9.40;;;21.70;70.50;;;;;;5032323;28;20534;-61
2021/08/15 03:41:07;;;;;;;9.35;7.43;;;21.80;70.60;;;;;;5056587;28;20033;-61
2021/08/15 03:43:33;;;;;;;9.57;7.28;;;22.00;70.80;;;;;;5043166;28;20034;-61
2021/08/15 03:45:58;;;;;;;8.23;6.85;;;22.00;71.10;;;;;;5036370;28;20108;-61
2021/08/15 03:48:24;;;;;;;8.75;6.35;;;22.20;71.10;;;;;;5036273;28;20384;-61
2021/08/15 03:50:49;;;;;;;9.52;7.00;;;22.20;71.20;;;;;;5040742;28;20076;-61
2021/08/15 03:53:15;;;;;;;8.43;6.93;;;22.40;71.30;;;;;;5035583;28;20017;-61
2021/08/15 03:55:41;;;;;;;9.13;7.32;;;22.40;71.30;;;;;;5036092;28;20404;-61
2021/08/15 03:58:06;;;;;;;7.80;6.70;;;22.50;71.30;;;;;;5030674;28;20461;-61
2021/08/15 04:00:34;;;;;;;11.95;6.95;;;22.60;71.40;;;;;;5016404;28;20032;-61
2021/08/15 04:03:00;;;;;;;9.40;7.72;;;22.70;71.70;;;;;;5016630;28;20108;-61
2021/08/15 04:05:25;;;;;;;9.48;6.88;;;22.90;72.10;;;;;;5016363;28;20141;-61
2021/08/15 04:07:51;;;;;;;10.40;7.40;;;23.00;72.60;;;;;;5016043;28;20374;-61
2021/08/15 04:10:17;;;;;;;10.13;7.38;;;23.30;72.60;;;;;;5038636;28;20418;-61
2021/08/15 04:12:42;;;;;;;8.57;6.63;;;23.60;72.40;;;;;;5035844;28;20028;-62
2021/08/15 04:15:08;;;;;;;12.57;7.20;;;23.90;71.40;;;;;;5030166;28;20464;-62
2021/08/15 04:17:34;;;;;;;10.80;7.50;;;24.20;70.30;;;;;;5038686;28;20076;-62
2021/08/15 04:20:00;;;;;;;9.15;7.45;;;24.30;69.50;;;;;;5035279;28;20381;-62
2021/08/15 04:22:25;;;;;;;10.65;7.35;;;24.50;69.00;;;;;;5034792;28;20144;-62
2021/08/15 04:24:51;;;;;;;11.00;7.72;;;24.60;68.80;;;;;;5035459;28;20032;-62
2021/08/15 04:27:17;;;;;;;9.50;7.15;;;24.80;68.30;;;;;;5035556;28;20048;-62
2021/08/15 04:29:42;;;;;;;9.23;6.72;;;24.80;68.20;;;;;;5035396;28;20484;-62
2021/08/15 04:32:08;;;;;;;10.30;7.32;;;24.80;67.90;;;;;;5034930;28;20401;-62
2021/08/15 04:34:34;;;;;;;11.00;8.20;;;24.80;67.80;;;;;;5035612;28;20503;-62
2021/08/15 04:37:01;;;;;;;10.43;8.05;;;24.80;67.60;;;;;;5035651;28;20044;-62
2021/08/15 04:39:27;;;;;;;10.38;8.45;;;24.80;67.20;;;;;;5046550;28;20033;-62
2021/08/15 04:41:52;;;;;;;11.35;8.90;;;24.80;66.60;;;;;;5040666;28;20076;-62
2021/08/15 04:44:18;;;;;;;12.10;8.95;;;24.80;66.40;;;;;;5033999;28;20060;-61
2021/08/15 04:46:44;;;;;;;10.75;8.18;;;24.80;66.30;;;;;;5033035;28;20041;-62
2021/08/15 04:49:09;;;;;;;11.35;8.65;;;25.00;65.90;;;;;;5034416;28;20025;-61
2021/08/15 04:51:35;;;;;;;13.40;9.38;;;25.10;65.60;;;;;;5035096;28;20049;-61
2021/08/15 04:54:00;;;;;;;11.35;9.05;;;25.10;65.50;;;;;;5015380;28;20446;-61
2021/08/15 04:56:26;;;;;;;14.60;9.02;;;25.10;65.30;;;;;;5033278;28;20109;-61
2021/08/15 04:58:52;;;;;;;13.75;9.63;;;25.20;65.10;;;;;;5033442;28;20052;-61
2021/08/15 05:01:17;;;;;;;12.52;8.57;;;25.20;65.00;;;;;;5016995;28;20040;-61
2021/08/15 05:03:43;;;;;;;11.85;9.15;;;25.40;64.90;;;;;;5034932;28;20105;-61
2021/08/15 05:06:09;;;;;;;10.38;8.30;;;25.60;64.70;;;;;;5034217;28;20108;-61
2021/08/15 05:08:34;;;;;;;12.80;9.00;;;25.80;64.70;;;;;;5040481;28;20029;-61
2021/08/15 05:11:00;;;;;;;12.48;8.55;;;25.90;64.10;;;;;;5054758;28;20025;-61
2021/08/15 05:13:27;;;;;;;10.05;8.35;;;26.20;64.00;;;;;;5054642;28;20017;-61
2021/08/15 05:15:53;;;;;;;9.82;7.78;;;26.30;63.70;;;;;;5054677;28;20025;-61
2021/08/15 05:18:19;;;;;;;9.18;7.53;;;26.40;63.70;;;;;;5054455;28;20029;-61
2021/08/15 05:20:45;;;;;;;10.10;7.80;;;26.40;63.80;;;;;;5054569;28;20063;-61
2021/08/15 05:23:12;;;;;;;10.18;7.72;;;26.40;63.80;;;;;;5038169;28;20417;-61
2021/08/15 05:25:38;;;;;;;11.75;7.60;;;26.40;63.90;;;;;;5034475;28;20029;-60
2021/08/15 05:28:04;;;;;;;13.68;8.02;;;26.30;64.00;;;;;;5034386;28;20021;-60
2021/08/15 05:30:31;;;;;;;11.20;8.38;;;26.30;64.40;;;;;;5034607;28;20045;-60
2021/08/15 05:32:57;;;;;;;9.93;7.53;;;26.30;64.50;;;;;;5034493;28;20440;-60
2021/08/15 05:35:22;;;;;;;8.65;7.57;;;26.40;64.50;;;;;;5034383;28;20045;-60
2021/08/15 05:37:50;;;;;;;8.57;7.65;;;26.70;63.90;;;;;;5033477;28;20053;-60
2021/08/15 05:40:16;;;;;;;10.23;7.78;;;27.00;63.30;;;;;;5053469;28;20036;-60
2021/08/15 05:42:42;;;;;;;10.18;7.70;;;27.30;62.80;;;;;;5037948;28;20100;-60
2021/08/15 05:45:09;;;;;;;8.77;6.82;;;27.40;62.50;;;;;;5034187;28;20398;-60
2021/08/15 05:47:35;;;;;;;8.60;7.07;;;27.50;62.30;;;;;;5034035;28;20450;-60
2021/08/15 05:50:01;;;;;;;9.15;7.32;;;27.50;62.40;;;;;;5034160;28;20083;-60
2021/08/15 05:52:27;;;;;;;11.43;8.10;;;27.50;62.60;;;;;;5034058;28;20018;-60
2021/08/15 05:54:53;;;;;;;10.02;7.45;;;27.40;62.50;;;;;;5033560;28;20026;-60
2021/08/15 05:57:19;;;;;;;10.05;7.35;;;27.30;62.40;;;;;;5033884;28;20109;-60
2021/08/15 05:59:45;;;;;;;11.02;7.40;;;27.30;62.60;;;;;;5033318;28;20068;-60
2021/08/15 06:02:10;;;;;;;9.80;7.57;;;27.30;62.50;;;;;;5033970;28;20040;-60
2021/08/15 06:04:36;;;;;;;10.00;7.65;;;27.30;62.60;;;;;;5034051;28;20480;-60
2021/08/15 06:07:02;;;;;;;11.18;7.38;;;27.30;62.40;;;;;;5033886;28;20030;-60
2021/08/15 06:09:28;;;;;;;10.25;6.65;;;27.20;62.20;;;;;;5046822;28;20032;-60
2021/08/15 06:11:53;;;;;;;10.00;6.82;;;27.20;62.00;;;;;;5052266;28;20143;-60
2021/08/15 06:14:20;;;;;;;8.02;6.55;;;27.20;61.40;;;;;;5034062;28;20088;-60
2021/08/15 06:16:45;;;;;;;8.25;7.28;;;27.20;61.20;;;;;;5034395;28;20473;-60
2021/08/15 06:19:12;;;;;;;10.13;8.73;;;27.20;61.70;;;;;;5034206;28;20110;-60
2021/08/15 06:21:38;;;;;;;13.35;9.45;;;27.10;62.10;;;;;;5033871;28;20072;-60
2021/08/15 06:24:04;;;;;;;11.18;9.15;;;27.10;62.50;;;;;;5034010;28;20022;-60
2021/08/15 06:26:30;;;;;;;12.90;9.18;;;27.10;62.80;;;;;;5034930;28;20026;-60
2021/08/15 06:28:56;;;;;;;11.55;10.20;;;27.10;63.30;;;;;;5034016;28;20022;-60
2021/08/15 06:31:23;;;;;;;12.48;10.02;;;27.10;63.60;;;;;;5033445;28;20065;-60
2021/08/15 06:33:49;;;;;;;11.32;9.80;;;27.00;63.90;;;;;;5034438;28;20104;-59
2021/08/15 06:36:15;;;;;;;14.40;11.15;;;27.00;64.20;;;;;;5034049;28;20426;-60
2021/08/15 06:38:41;;;;;;;12.63;10.60;;;26.90;64.30;;;;;;5036618;28;20029;-60
2021/08/15 06:41:10;;;;;;;12.77;10.07;;;26.90;64.20;;;;;;5038795;28;20087;-60
2021/08/15 06:43:36;;;;;;;14.73;11.27;;;26.90;64.10;;;;;;5034514;28;20350;-59
2021/08/15 06:46:02;;;;;;;14.27;11.40;;;26.90;64.40;;;;;;5033828;28;20033;-59
2021/08/15 06:48:27;;;;;;;15.93;10.95;;;26.90;64.40;;;;;;5034133;28;20120;-59
2021/08/15 06:50:58;;;;;;;15.30;11.65;;;26.90;64.50;;;;;;5034737;28;20045;-59
2021/08/15 06:53:24;;;;;;;;;;;26.90;64.60;;;;;;5034853;28;20029;-59
2021/08/15 06:55:50;;;;;;;19.00;16.70;;;26.80;64.50;;;;;;5034388;28;19905;-59
2021/08/15 06:58:17;;;;;;;21.77;19.33;;;26.80;64.40;;;;;;5034090;28;20033;-59
2021/08/15 07:00:43;;;;;;;23.08;20.67;;;26.80;64.20;;;;;;5034307;28;20469;-59
2021/08/15 07:03:09;;;;;;;26.00;23.10;;;26.80;64.20;;;;;;5037677;28;20477;-59
2021/08/15 07:05:34;;;;;;;30.67;27.27;;;26.80;64.20;;;;;;5034611;28;20035;-59
2021/08/15 07:08:00;;;;;;;31.27;28.02;;;26.80;63.70;;;;;;5033910;28;20068;-61
2021/08/15 07:10:27;;;;;;;31.20;27.90;;;26.90;63.90;;;;;;5035035;28;20379;-60
2021/08/15 07:12:55;;;;;;;27.27;24.38;;;26.90;63.80;;;;;;5037719;28;20026;-60
2021/08/15 07:15:21;;;;;;;25.08;22.45;;;26.90;63.50;;;;;;5037390;28;20025;-60
2021/08/15 07:17:47;;;;;;;25.73;23.23;;;26.90;62.90;;;;;;5037047;28;20512;-60
2021/08/15 07:20:14;;;;;;;24.17;21.63;;;26.90;62.40;;;;;;5020000;28;20069;-60
2021/08/15 07:22:40;;;;;;;21.63;19.17;;;26.90;62.20;;;;;;5017076;28;20105;-60
2021/08/15 07:25:06;;;;;;;19.40;16.05;;;26.90;62.10;;;;;;5017146;28;20472;-60
2021/08/15 07:27:35;;;;;;;18.15;14.88;;;26.90;61.50;;;;;;5016764;28;20028;-60
2021/08/15 07:30:01;;;;;;;18.60;16.35;;;26.90;60.90;;;;;;5016743;28;20045;-60
2021/08/15 07:32:27;;;;;;;16.92;14.68;;;26.90;60.60;;;;;;5024022;28;20091;-60
2021/08/15 07:34:53;;;;;;;14.63;13.13;;;26.80;60.70;;;;;;5038527;28;20029;-59
2021/08/15 07:37:19;;;;;;;17.48;13.73;;;26.80;60.70;;;;;;5044404;28;20054;-60
2021/08/15 07:39:44;;;;;;;13.48;11.95;;;26.80;60.50;;;;;;5036612;28;20033;-60
2021/08/15 07:42:10;;;;;;;13.05;10.80;;;26.80;60.00;;;;;;5041202;28;20106;-60
2021/08/15 07:44:36;;;;;;;10.95;9.27;;;26.80;60.00;;;;;;5036366;28;20029;-60
2021/08/15 07:47:01;;;;;;;12.95;11.02;;;26.80;59.80;;;;;;5036317;28;20053;-60
2021/08/15 07:49:27;;;;;;;11.38;8.82;;;26.80;59.20;;;;;;5036093;28;20434;-60
2021/08/15 07:51:53;;;;;;;11.38;8.77;;;26.80;58.90;;;;;;5035788;28;20018;-60
2021/08/15 07:54:18;;;;;;;12.27;8.82;;;26.80;58.30;;;;;;5036182;28;20026;-60
2021/08/15 07:56:44;;;;;;;10.93;8.85;;;26.80;58.20;;;;;;5036280;28;20025;-60
2021/08/15 07:59:10;;;;;;;10.82;8.40;;;26.80;57.90;;;;;;5036273;28;20665;-60
2021/08/15 08:01:36;;;;;;;8.95;6.97;;;26.80;58.20;;;;;;5036328;28;20030;-60
2021/08/15 08:04:02;;;;;;;9.98;7.80;;;26.70;57.80;;;;;;5036061;28;20457;-60
2021/08/15 08:06:28;;;;;;;8.75;7.10;;;26.70;57.50;;;;;;5050605;28;20036;-60
2021/08/15 08:08:53;;;;;;;8.70;6.43;;;26.80;56.90;;;;;;5047134;28;20071;-60
2021/08/15 08:11:19;;;;;;;7.60;5.72;;;26.80;56.70;;;;;;5035955;28;20445;-60
2021/08/15 08:13:47;;;;;;;5.85;4.80;;;26.80;56.50;;;;;;5035907;28;20030;-60
2021/08/15 08:16:14;;;;;;;9.48;6.20;;;26.80;56.20;;;;;;5035658;28;20155;-60
2021/08/15 08:18:40;;;;;;;7.38;5.35;;;26.80;56.20;;;;;;5035928;28;20021;-60
2021/08/15 08:21:05;;;;;;;7.28;5.13;;;26.80;56.00;;;;;;5035245;28;20036;-60
2021/08/15 08:23:31;;;;;;;7.22;5.10;;;26.80;56.20;;;;;;5035689;28;20111;-60
2021/08/15 08:25:57;;;;;;;7.53;5.55;;;26.80;56.10;;;;;;5035036;28;20026;-60
2021/08/15 08:28:23;;;;;;;7.18;5.63;;;26.80;56.00;;;;;;5035587;28;20025;-60
2021/08/15 08:30:49;;;;;;;7.13;5.78;;;26.80;56.10;;;;;;5035556;28;20476;-60
2021/08/15 08:33:15;;;;;;;7.75;6.07;;;26.70;56.20;;;;;;5049090;28;20025;-60
2021/08/15 08:35:41;;;;;;;8.13;5.60;;;26.80;56.20;;;;;;5054642;28;20037;-60
2021/08/15 08:38:07;;;;;;;6.28;4.95;;;26.80;56.10;;;;;;5055422;28;20082;-60
2021/08/15 08:40:33;;;;;;;7.55;4.72;;;26.80;56.10;;;;;;5055133;28;20048;-60
2021/08/15 08:42:59;;;;;;;7.07;4.90;;;26.80;56.20;;;;;;5031218;28;20409;-60
2021/08/15 08:45:27;;;;;;;7.38;4.90;;;26.70;56.00;;;;;;5035377;28;20045;-60
2021/08/15 08:47:54;;;;;;;6.50;5.13;;;26.70;56.00;;;;;;5035280;28;20536;-60
2021/08/15 08:50:21;;;;;;;8.15;6.60;;;26.70;56.10;;;;;;5035175;28;20468;-60
2021/08/15 08:52:47;;;;;;;9.82;5.75;;;26.70;56.30;;;;;;5034475;28;20021;-60
2021/08/15 08:55:14;;;;;;;8.38;5.07;;;26.70;56.30;;;;;;5034990;28;20029;-60
2021/08/15 08:57:39;;;;;;;9.00;6.03;;;26.70;56.60;;;;;;5035046;28;20104;-60
2021/08/15 09:00:06;;;;;;;7.93;5.93;;;26.70;56.70;;;;;;5034926;28;20094;-60
2021/08/15 09:02:36;;;;;;;8.98;6.82;;;26.70;57.00;;;;;;5034816;28;20018;-60
2021/08/15 09:05:03;;;;;;;8.35;6.40;;;26.70;56.70;;;;;;5040282;28;20044;-60
2021/08/15 09:07:34;;;;;;;11.77;7.00;;;26.70;56.50;;;;;;5042140;28;20030;-60
2021/08/15 09:10:01;;;;;;;7.55;5.93;;;26.70;56.40;;;;;;5034935;28;20032;-60
2021/08/15 09:12:48;;;;;;;10.23;7.50;;;26.60;56.70;;;;;;5035068;28;20068;-60
2021/08/15 09:15:19;;;;;;;8.85;7.05;;;26.60;56.70;;;;;;5034704;28;20527;-60
2021/08/15 09:17:46;;;;;;;8.85;6.28;;;26.60;56.60;;;;;;5034962;28;20101;-60
2021/08/15 09:20:37;;;;;;;10.60;7.40;;;26.60;56.80;;;;;;5034621;28;20392;-60
2021/08/15 09:23:26;;;;;;;8.48;5.95;;;26.50;56.60;;;;;;5034533;28;20497;-60
2021/08/15 09:26:21;;;;;;;9.40;6.80;;;26.50;57.00;;;;;;5016626;28;20057;-60
2021/08/15 09:28:50;;;;;;;11.13;7.40;;;26.50;57.20;;;;;;5014707;28;20437;-60
2021/08/15 09:31:32;;;;;;;8.88;6.80;;;26.40;57.20;;;;;;5014639;28;20088;-60
2021/08/15 09:34:00;;;;;;;8.20;5.97;;;26.40;57.50;;;;;;5052783;28;20057;-60
2021/08/15 09:36:32;;;;;;;9.30;6.38;;;26.40;57.70;;;;;;5053203;28;20377;-60
2021/08/15 09:39:02;;;;;;;8.98;6.45;;;26.30;57.90;;;;;;5014658;28;20076;-59
2021/08/15 09:41:31;;;;;;;6.97;5.90;;;26.40;58.00;;;;;;5026484;28;20496;-60
2021/08/15 09:44:29;;;;;;;7.82;5.90;;;26.40;58.20;;;;;;5034511;28;20481;-60
2021/08/15 09:47:00;;;;;;;9.32;6.70;;;26.40;57.90;;;;;;5014667;28;20384;-60
2021/08/15 09:49:37;;;;;;;12.77;8.27;;;26.40;57.70;;;;;;5014497;28;20075;-59
2021/08/15 09:52:04;;;;;;;12.48;7.00;;;26.40;57.80;;;;;;5014216;28;20028;-60
2021/08/15 09:54:31;;;;;;;10.13;6.47;;;26.40;58.10;;;;;;5014493;28;20087;-60
2021/08/15 09:56:57;;;;;;;10.48;6.80;;;26.40;57.80;;;;;;5016471;28;20037;-60
2021/08/15 09:59:25;;;;;;;9.88;6.60;;;26.30;57.40;;;;;;5034006;28;20404;-60
2021/08/15 10:01:55;;;;;;;8.15;5.80;;;26.30;56.90;;;;;;5034273;28;20481;-60
2021/08/15 10:04:25;;;;;;;8.77;6.22;;;26.30;57.10;;;;;;5035546;28;20770;-60
2021/08/15 10:06:55;;;;;;;7.73;5.53;;;26.30;56.90;;;;;;5053636;28;20052;-59
2021/08/15 10:09:22;;;;;;;7.07;5.13;;;26.30;57.30;;;;;;5053851;28;20036;-60
2021/08/15 10:11:48;;;;;;;7.05;4.63;;;26.30;57.40;;;;;;5053545;28;20029;-60
2021/08/15 10:14:15;;;;;;;6.18;4.35;;;26.30;57.10;;;;;;5044166;28;20021;-60
2021/08/15 10:17:04;;;;;;;5.68;4.93;;;26.30;57.20;;;;;;5033585;28;20031;-60
2021/08/15 10:19:42;;;;;;;6.90;5.07;;;26.30;57.20;;;;;;5033158;28;20022;-60
2021/08/15 10:22:09;;;;;;;6.60;4.93;;;26.30;56.70;;;;;;5032743;28;20108;-59
2021/08/15 10:24:45;;;;;;;6.28;4.90;;;26.30;56.50;;;;;;5026927;28;20736;-59
2021/08/15 10:27:42;;;;;;;8.43;4.60;;;26.30;56.90;;;;;;5031967;28;20035;-60
2021/08/15 10:30:14;;;;;;;7.80;4.53;;;26.30;56.90;;;;;;5033003;28;20041;-60
2021/08/15 10:32:55;;;;;;;5.95;4.32;;;26.20;57.00;;;;;;5041146;28;20029;-60
2021/08/15 10:35:41;;;;;;;6.88;4.63;;;26.20;56.90;;;;;;5051892;28;20025;-60
2021/08/15 10:38:15;;;;;;;7.10;4.38;;;26.20;56.90;;;;;;5039224;28;20493;-60
2021/08/15 10:40:41;;;;;;;6.82;4.28;;;26.20;56.90;;;;;;5033305;28;20354;-59
2021/08/15 10:43:12;;;;;;;6.43;4.40;;;26.20;57.00;;;;;;5033427;28;20032;-59
2021/08/15 10:45:39;;;;;;;7.13;4.63;;;26.20;56.70;;;;;;5035765;28;20029;-59
2021/08/15 10:48:05;;;;;;;5.22;4.38;;;26.20;56.40;;;;;;5037025;28;20025;-60
2021/08/15 10:50:44;;;;;;;6.88;4.43;;;26.20;56.30;;;;;;5022763;28;20044;-60
2021/08/15 10:53:29;;;;;;;5.65;4.07;;;26.20;56.10;;;;;;5017875;28;20033;-60
2021/08/15 10:55:58;;;;;;;6.10;4.43;;;26.20;56.10;;;;;;5007235;28;20040;-59
2021/08/15 10:58:47;;;;;;;4.90;4.22;;;26.20;55.90;;;;;;5017238;28;20025;-60
2021/08/15 11:01:14;;;;;;;5.00;4.28;;;26.20;56.10;;;;;;5017493;28;20060;-60
2021/08/15 11:03:50;;;;;;;5.82;4.53;;;26.20;55.90;;;;;;5017486;28;20014;-59
2021/08/15 11:06:31;;;;;;;5.00;3.67;;;26.20;55.70;;;;;;5017927;28;20037;-59
2021/08/15 11:09:00;;;;;;;5.75;4.85;;;26.20;55.40;;;;;;5037129;28;20040;-60
2021/08/15 11:11:29;;;;;;;7.28;4.53;;;26.20;55.60;;;;;;5036992;28;20036;-59
2021/08/15 11:14:22;;;;;;;6.47;4.38;;;26.20;55.50;;;;;;5037032;28;20021;-60
2021/08/15 11:16:55;;;;;;;5.45;4.28;;;26.20;55.40;;;;;;5034222;28;20046;-60
2021/08/15 11:19:20;;;;;;;6.28;4.65;;;26.20;55.70;;;;;;5036919;28;20631;-60
2021/08/15 11:22:04;;;;;;;5.50;3.92;;;26.20;55.40;;;;;;5036904;28;20025;-60
2021/08/15 11:24:31;;;;;;;5.55;4.13;;;26.20;55.00;;;;;;5016952;28;20026;-60
2021/08/15 11:26:57;;;;;;;6.22;5.00;;;26.20;55.30;;;;;;5016797;28;20030;-60
2021/08/15 11:29:24;;;;;;;5.55;4.00;;;26.20;54.80;;;;;;5016862;28;20109;-60
2021/08/15 11:31:51;;;;;;;5.47;4.05;;;26.20;53.90;;;;;;5020376;28;20034;-60
2021/08/15 11:34:16;;;;;;;5.30;3.88;;;26.20;53.80;;;;;;5055432;28;20484;-60
2021/08/15 11:36:42;;;;;;;5.40;4.05;;;26.20;53.50;;;;;;5054564;28;20070;-60
2021/08/15 11:39:09;;;;;;;6.70;4.10;;;26.20;53.40;;;;;;5018383;28;20397;-60
2021/08/15 11:41:35;;;;;;;5.10;3.92;;;26.20;53.80;;;;;;5036525;28;20029;-60
2021/08/15 11:44:02;;;;;;;5.57;3.63;;;26.20;54.10;;;;;;5050836;28;20056;-60
2021/08/15 11:46:27;;;;;;;4.57;3.97;;;26.20;53.50;;;;;;5056247;28;20036;-60
2021/08/15 11:48:53;;;;;;;5.28;3.80;;;26.20;53.20;;;;;;5056219;28;20021;-60
2021/08/15 11:51:19;;;;;;;4.90;3.88;;;26.20;53.00;;;;;;5045193;28;20112;-60
2021/08/15 11:53:47;;;;;;;4.90;4.00;;;26.30;53.30;;;;;;5035836;28;20022;-60
2021/08/15 11:56:14;;;;;;;5.15;3.90;;;26.20;53.00;;;;;;5033885;28;20465;-60
2021/08/15 11:58:59;;;;;;;4.55;3.80;;;26.30;52.90;;;;;;5036237;28;20424;-60
2021/08/15 12:01:25;;;;;;;6.03;3.70;;;26.20;52.80;;;;;;5036491;28;20043;-60
2021/08/15 12:03:58;;;;;;;4.63;3.58;;;26.20;52.70;;;;;;5035993;28;20107;-60
2021/08/15 12:06:24;;;;;;;5.63;3.78;;;26.20;52.80;;;;;;5016309;28;20030;-60
2021/08/15 12:08:50;;;;;;;3.85;3.42;;;26.30;52.90;;;;;;5024690;28;20318;-60
2021/08/15 12:11:28;;;;;;;5.00;4.03;;;26.20;53.20;;;;;;5035953;28;20032;-60
2021/08/15 12:14:17;;;;;;;4.97;3.85;;;26.30;53.40;;;;;;5035567;28;20049;-60
2021/08/15 12:16:54;;;;;;;5.13;3.88;;;26.20;53.30;;;;;;5035825;28;20037;-60
2021/08/15 12:19:21;;;;;;;4.90;3.65;;;26.30;53.70;;;;;;5035784;28;20112;-60
2021/08/15 12:21:47;;;;;;;7.13;4.20;;;26.20;53.60;;;;;;5035780;28;20026;-60
2021/08/15 12:24:20;;;;;;;5.50;3.95;;;26.20;53.50;;;;;;5035568;28;20021;-60
2021/08/15 12:26:52;;;;;;;4.43;3.90;;;26.20;53.80;;;;;;5035608;28;20435;-60
2021/08/15 12:29:27;;;;;;;6.53;4.18;;;26.30;54.00;;;;;;5035611;28;20088;-60
2021/08/15 12:32:08;;;;;;;7.10;5.22;;;26.30;53.80;;;;;;5037189;28;20041;-60
2021/08/15 12:34:36;;;;;;;4.85;4.10;;;26.30;53.80;;;;;;5054867;28;20352;-60
2021/08/15 12:37:24;;;;;;;5.60;4.30;;;26.30;53.90;;;;;;5050842;28;20041;-60
2021/08/15 12:40:13;;;;;;;5.35;4.50;;;26.30;54.00;;;;;;5035384;28;20433;-60
2021/08/15 12:42:41;;;;;;;6.28;4.60;;;26.30;54.50;;;;;;5035022;28;20056;-60
2021/08/15 12:45:09;;;;;;;7.45;5.05;;;26.30;54.70;;;;;;5050666;28;20116;-60